createdAt,value
2022-08-31T00:02:14.019Z,102253.75
2022-08-31T00:05:17.287Z,102252.88
2022-08-31T00:08:20.270Z,102247.53
2022-08-31T00:11:28.509Z,102250.22
2022-08-31T00:14:32.412Z,102253.75
2022-08-31T00:17:37.237Z,102251.13
2022-08-31T00:20:40.453Z,102250.22
2022-08-31T00:23:43.480Z,102252.88
2022-08-31T00:26:46.538Z,102252.00
2022-08-31T00:29:49.670Z,102252.00
2022-08-31T00:32:54.149Z,102251.13
2022-08-31T00:36:00.266Z,102256.47
2022-08-31T00:39:05.954Z,102249.38
2022-08-31T00:42:09.635Z,102244.91
2022-08-31T00:45:12.882Z,102255.59
2022-08-31T00:48:17.361Z,102254.72
2022-08-31T00:51:20.986Z,102260.06
2022-08-31T00:54:27.986Z,102260.97
2022-08-31T00:57:35.051Z,102262.75
2022-08-31T01:00:38.305Z,102257.41
2022-08-31T01:03:42.842Z,102252.97
2022-08-31T01:06:46.238Z,102248.56
2022-08-31T01:09:55.460Z,102261.84
2022-08-31T01:13:01.154Z,102254.72
2022-08-31T01:16:09.741Z,102260.97
2022-08-31T01:19:20.976Z,102257.47
2022-08-31T01:22:32.171Z,102253.91
2022-08-31T01:25:39.981Z,102261.03
2022-08-31T01:28:43.167Z,102248.63
2022-08-31T01:31:48.271Z,102248.63
2022-08-31T01:34:51.334Z,102251.28
2022-08-31T01:37:55.285Z,102246.84
2022-08-31T01:41:02.045Z,102258.44
2022-08-31T01:44:05.373Z,102262.00
2022-08-31T01:47:08.450Z,102266.44
2022-08-31T01:50:12.069Z,102262.88
2022-08-31T01:53:15.833Z,102268.28
2022-08-31T01:56:23.733Z,102266.50
2022-08-31T01:59:26.889Z,102270.97
2022-08-31T02:02:33.043Z,102276.31
2022-08-31T02:05:36.350Z,102276.31
2022-08-31T02:08:41.260Z,102276.31
2022-08-31T02:11:45.979Z,102269.19
2022-08-31T02:14:48.971Z,102277.28
2022-08-31T02:17:52.756Z,102272.81
2022-08-31T02:20:56.318Z,102271.06
2022-08-31T02:23:59.433Z,102278.16
2022-08-31T02:27:03.999Z,102272.91
2022-08-31T02:30:10.071Z,102281.72
2022-08-31T02:33:13.263Z,102278.25
2022-08-31T02:36:16.528Z,102272.91
2022-08-31T02:39:20.263Z,102272.91
2022-08-31T02:42:24.922Z,102273.84
2022-08-31T02:45:28.064Z,102262.22
2022-08-31T02:48:38.120Z,102265.81
2022-08-31T02:51:42.348Z,102261.41
2022-08-31T02:54:45.428Z,102262.34
2022-08-31T02:57:49.907Z,102262.34
2022-08-31T03:00:53.609Z,102264.06
2022-08-31T03:03:57.531Z,102259.66
2022-08-31T03:07:00.672Z,102248.09
2022-08-31T03:10:04.598Z,102248.09
2022-08-31T03:13:09.106Z,102239.19
2022-08-31T03:16:14.238Z,102244.53
2022-08-31T03:19:18.027Z,102245.47
2022-08-31T03:22:23.766Z,102242.81
2022-08-31T03:25:27.319Z,102249.88
2022-08-31T03:28:31.787Z,102253.50
2022-08-31T03:32:02.179Z,102251.72
2022-08-31T03:35:07.326Z,102251.72
2022-08-31T03:38:10.620Z,102252.63
2022-08-31T03:41:19.950Z,102255.28
2022-08-31T03:44:25.098Z,102262.41
2022-08-31T03:47:29.630Z,102263.31
2022-08-31T03:50:34.350Z,102269.56
2022-08-31T03:53:44.198Z,102266.00
2022-08-31T03:56:53.148Z,102276.69
2022-08-31T03:59:59.030Z,102271.34
2022-08-31T04:03:17.203Z,102274.94
2022-08-31T04:06:40.478Z,102274.94
2022-08-31T04:10:02.236Z,102278.53
2022-08-31T04:13:29.470Z,102278.53
2022-08-31T04:17:03.990Z,102280.34
2022-08-31T04:20:20.065Z,102292.81
2022-08-31T04:23:33.317Z,102288.38
2022-08-31T04:26:40.551Z,102297.34
2022-08-31T04:29:44.024Z,102296.53
2022-08-31T04:32:48.625Z,102297.41
2022-08-31T04:35:51.693Z,102300.91
2022-08-31T04:38:57.296Z,102300.91
2022-08-31T04:42:00.779Z,102303.59
2022-08-31T04:45:07.889Z,102304.53
2022-08-31T04:48:12.465Z,102307.19
2022-08-31T04:51:17.819Z,102308.09
2022-08-31T04:54:20.879Z,102306.25
2022-08-31T04:57:23.894Z,102314.28
2022-08-31T05:00:28.394Z,102309.81
2022-08-31T05:03:35.310Z,102313.44
2022-08-31T05:06:42.286Z,102306.31
2022-08-31T05:09:45.322Z,102304.53
2022-08-31T05:12:49.422Z,102310.78
2022-08-31T05:15:55.036Z,102310.84
2022-08-31T05:19:00.595Z,102310.78
2022-08-31T05:22:03.810Z,102301.94
2022-08-31T05:25:09.406Z,102309.03
2022-08-31T05:28:12.654Z,102314.38
2022-08-31T05:31:16.705Z,102312.56
2022-08-31T05:34:23.129Z,102304.56
2022-08-31T05:37:26.114Z,102303.72
2022-08-31T05:40:29.706Z,102305.44
2022-08-31T05:43:33.463Z,102306.31
2022-08-31T05:46:36.880Z,102306.31
2022-08-31T05:49:45.073Z,102305.44
2022-08-31T05:52:52.570Z,102302.75
2022-08-31T05:56:00.427Z,102301.03
2022-08-31T05:59:04.797Z,102309.03
2022-08-31T06:02:10.547Z,102307.28
2022-08-31T06:05:16.111Z,102307.28
2022-08-31T06:08:27.577Z,102307.28
2022-08-31T06:11:34.746Z,102310.91
2022-08-31T06:14:38.848Z,102311.81
2022-08-31T06:17:43.213Z,102315.34
2022-08-31T06:20:50.023Z,102306.47
2022-08-31T06:23:55.926Z,102307.41
2022-08-31T06:27:02.696Z,102314.53
2022-08-31T06:30:10.153Z,102311.84
2022-08-31T06:33:13.206Z,102322.53
2022-08-31T06:36:37.502Z,102331.44
2022-08-31T06:39:57.215Z,102332.34
2022-08-31T06:43:13.066Z,102326.09
2022-08-31T06:46:39.024Z,102335.84
2022-08-31T06:49:57.232Z,102334.03
2022-08-31T06:53:02.052Z,102329.59
2022-08-31T06:56:26.905Z,102326.94
2022-08-31T06:59:49.179Z,102323.41
2022-08-31T07:03:23.082Z,102333.22
2022-08-31T07:06:29.558Z,102332.34
2022-08-31T07:09:34.333Z,102337.69
2022-08-31T07:12:37.534Z,102339.44
2022-08-31T07:15:40.764Z,102332.34
2022-08-31T07:18:45.318Z,102332.28
2022-08-31T07:21:50.674Z,102339.44
2022-08-31T07:24:55.119Z,102340.28
2022-08-31T07:27:59.476Z,102344.78
2022-08-31T07:31:05.615Z,102341.28
2022-08-31T07:34:11.100Z,102346.63
2022-08-31T07:37:43.215Z,102345.75
2022-08-31T07:41:05.852Z,102344.88
2022-08-31T07:44:11.578Z,102350.19
2022-08-31T07:47:18.515Z,102352.88
2022-08-31T07:50:23.205Z,102360.81
2022-08-31T07:53:49.572Z,102352.75
2022-08-31T07:57:06.438Z,102360.81
2022-08-31T08:00:10.790Z,102364.38
2022-08-31T08:03:21.452Z,102365.25
2022-08-31T08:06:44.715Z,102368.81
2022-08-31T08:10:14.462Z,102359.94
2022-08-31T08:13:28.205Z,102365.22
2022-08-31T08:16:41.810Z,102366.22
2022-08-31T08:19:58.267Z,102368.00
2022-08-31T08:23:01.671Z,102367.16
2022-08-31T08:26:14.027Z,102375.13
2022-08-31T08:29:49.690Z,102374.28
2022-08-31T08:33:03.262Z,102366.31
2022-08-31T08:36:09.245Z,102366.31
2022-08-31T08:39:13.507Z,102355.63
2022-08-31T08:42:29.054Z,102360.06
2022-08-31T08:45:34.972Z,102361.81
2022-08-31T08:48:42.006Z,102366.28
2022-08-31T08:51:50.044Z,102372.50
2022-08-31T08:54:55.936Z,102375.19
2022-08-31T08:57:59.938Z,102372.50
2022-08-31T09:01:04.840Z,102375.19
2022-08-31T09:04:17.191Z,102375.19
2022-08-31T09:07:54.218Z,102369.84
2022-08-31T09:11:10.258Z,102366.31
2022-08-31T09:14:28.025Z,102373.41
2022-08-31T09:17:44.440Z,102363.63
2022-08-31T09:21:02.862Z,102362.75
2022-08-31T09:24:08.814Z,102358.44
2022-08-31T09:27:46.747Z,102359.47
2022-08-31T09:30:53.274Z,102360.66
2022-08-31T09:33:57.714Z,102357.16
2022-08-31T09:37:23.266Z,102351.72
2022-08-31T09:40:38.695Z,102357.91
2022-08-31T09:43:41.862Z,102352.56
2022-08-31T09:46:49.486Z,102355.13
2022-08-31T09:49:57.948Z,102353.28
2022-08-31T09:53:27.851Z,102355.88
2022-08-31T09:56:30.869Z,102344.31
2022-08-31T09:59:40.224Z,102348.75
2022-08-31T10:02:44.146Z,102348.78
2022-08-31T10:05:52.247Z,102351.50
2022-08-31T10:09:01.166Z,102349.75
2022-08-31T10:12:10.149Z,102348.97
2022-08-31T10:15:18.814Z,102343.72
2022-08-31T10:18:30.207Z,102342.06
2022-08-31T10:21:45.006Z,102346.56
2022-08-31T10:24:55.179Z,102345.66
2022-08-31T10:28:06.313Z,102341.16
2022-08-31T10:31:21.130Z,102341.03
2022-08-31T10:34:44.187Z,102340.09
2022-08-31T10:37:57.886Z,102340.91
2022-08-31T10:41:11.361Z,102348.91
2022-08-31T10:44:23.887Z,102335.44
2022-08-31T10:47:33.057Z,102331.88
2022-08-31T10:50:46.140Z,102334.53
2022-08-31T10:54:01.395Z,102327.44
2022-08-31T10:57:21.405Z,102324.75
2022-08-31T11:00:46.582Z,102326.53
2022-08-31T11:04:14.382Z,102322.09
2022-08-31T11:07:31.274Z,102322.09
2022-08-31T11:10:48.247Z,102323.88
2022-08-31T11:14:09.858Z,102328.38
2022-08-31T11:17:31.655Z,102317.63
2022-08-31T11:20:56.944Z,102315.84
2022-08-31T11:24:13.642Z,102298.94
2022-08-31T11:27:24.196Z,102306.91
2022-08-31T11:30:32.775Z,102304.22
2022-08-31T11:33:36.518Z,102311.31
2022-08-31T11:36:50.088Z,102310.38
2022-08-31T11:39:53.502Z,102303.31
2022-08-31T11:43:01.371Z,102303.31
2022-08-31T11:46:37.924Z,102297.91
2022-08-31T11:49:48.684Z,102304.22
2022-08-31T11:52:53.630Z,102291.91
2022-08-31T11:55:59.675Z,102290.16
2022-08-31T11:59:25.210Z,102294.56
2022-08-31T12:03:04.479Z,102302.56
2022-08-31T12:06:10.721Z,102291.00
2022-08-31T12:09:38.529Z,102282.09
2022-08-31T12:12:56.033Z,102278.47
2022-08-31T12:16:37.799Z,102274.91
2022-08-31T12:20:01.289Z,102266.03
2022-08-31T12:23:37.499Z,102274.00
2022-08-31T12:27:06.169Z,102264.22
2022-08-31T12:30:18.618Z,102258.91
2022-08-31T12:33:23.994Z,102258.00
2022-08-31T12:36:31.825Z,102250.94
2022-08-31T12:39:35.301Z,102257.13
2022-08-31T12:42:43.657Z,102255.34
2022-08-31T12:46:07.872Z,102250.94
2022-08-31T12:49:37.202Z,102249.19
2022-08-31T12:52:58.782Z,102249.13
2022-08-31T12:56:09.502Z,102250.97
2022-08-31T12:59:45.736Z,102248.28
2022-08-31T13:02:55.033Z,102246.44
2022-08-31T13:06:05.723Z,102244.72
2022-08-31T13:09:26.203Z,102241.16
2022-08-31T13:12:29.205Z,102236.78
2022-08-31T13:15:39.375Z,102238.56
2022-08-31T13:18:43.177Z,102230.56
2022-08-31T13:21:51.673Z,102228.78
2022-08-31T13:24:57.539Z,102219.00
2022-08-31T13:28:01.934Z,102218.09
2022-08-31T13:31:09.227Z,102219.00
2022-08-31T13:34:12.375Z,102234.91
2022-08-31T13:37:24.817Z,102232.28
2022-08-31T13:40:30.205Z,102231.44
2022-08-31T13:43:37.365Z,102221.72
2022-08-31T13:46:44.849Z,102217.25
2022-08-31T13:49:53.152Z,102217.25
2022-08-31T13:53:25.415Z,102219.00
2022-08-31T13:56:51.817Z,102222.47
2022-08-31T13:59:55.577Z,102211.81
2022-08-31T14:03:01.679Z,102213.56
2022-08-31T14:06:24.886Z,102212.69
2022-08-31T14:09:28.166Z,102199.34
2022-08-31T14:12:37.782Z,102206.47
2022-08-31T14:15:45.794Z,102205.56
2022-08-31T14:18:55.981Z,102209.06
2022-08-31T14:22:16.181Z,102212.69
2022-08-31T14:25:19.910Z,102206.41
2022-08-31T14:28:40.478Z,102208.16
2022-08-31T14:31:49.431Z,102213.50
2022-08-31T14:34:53.458Z,102208.16
2022-08-31T14:37:56.501Z,102211.72
2022-08-31T14:41:00.262Z,102217.94
2022-08-31T14:44:09.475Z,102217.88
2022-08-31T14:47:12.763Z,102215.22
2022-08-31T14:50:20.089Z,102204.53
2022-08-31T14:53:23.453Z,102200.00
2022-08-31T14:56:33.112Z,102211.50
2022-08-31T14:59:38.878Z,102201.75
2022-08-31T15:02:43.739Z,102205.41
2022-08-31T15:05:48.927Z,102211.59
2022-08-31T15:08:52.041Z,102205.44
2022-08-31T15:12:00.292Z,102213.44
2022-08-31T15:15:05.153Z,102209.00
2022-08-31T15:18:09.881Z,102206.31
2022-08-31T15:21:13.325Z,102205.44
2022-08-31T15:24:16.673Z,102203.59
2022-08-31T15:27:20.850Z,102208.03
2022-08-31T15:30:25.309Z,102200.84
2022-08-31T15:33:31.294Z,102201.75
2022-08-31T15:36:36.053Z,102196.38
2022-08-31T15:39:43.409Z,102199.97
2022-08-31T15:42:46.605Z,102211.56
2022-08-31T15:45:51.459Z,102205.28
2022-08-31T15:48:53.412Z,102205.28
2022-08-31T15:55:21.710Z,102200.00
2022-08-31T15:58:26.044Z,102211.56
2022-08-31T16:01:31.086Z,102196.38
2022-08-31T16:04:38.420Z,102196.31
2022-08-31T16:07:42.740Z,102198.09
2022-08-31T16:10:47.527Z,102204.28
2022-08-31T16:13:56.222Z,102193.59
2022-08-31T16:17:00.745Z,102189.97
2022-08-31T16:20:04.182Z,102183.75
2022-08-31T16:23:07.588Z,102184.66
2022-08-31T16:26:11.595Z,102189.16
2022-08-31T16:29:16.968Z,102186.50
2022-08-31T16:32:21.351Z,102182.91
2022-08-31T16:35:24.459Z,102182.91
2022-08-31T16:38:27.451Z,102181.06
2022-08-31T16:41:31.907Z,102180.19
2022-08-31T16:44:37.106Z,102188.13
2022-08-31T16:47:41.775Z,102182.78
2022-08-31T16:50:45.000Z,102184.56
2022-08-31T16:53:50.730Z,102187.25
2022-08-31T16:56:55.117Z,102187.25
2022-08-31T16:59:58.766Z,102183.75
2022-08-31T17:03:03.105Z,102188.13
2022-08-31T17:06:06.483Z,102193.47
2022-08-31T17:09:11.859Z,102187.25
2022-08-31T17:12:17.818Z,102186.41
2022-08-31T17:15:21.013Z,102188.13
2022-08-31T17:18:27.064Z,102194.34
2022-08-31T17:21:31.991Z,102194.34
2022-08-31T17:24:38.727Z,102192.59
2022-08-31T17:27:41.740Z,102197.09
2022-08-31T17:30:48.471Z,102197.09
2022-08-31T17:33:53.151Z,102193.53
2022-08-31T17:36:58.422Z,102203.34
2022-08-31T17:40:01.696Z,102199.78
2022-08-31T17:43:04.871Z,102201.59
2022-08-31T17:46:11.105Z,102211.34
2022-08-31T17:49:16.113Z,102209.63
2022-08-31T17:52:20.547Z,102215.81
2022-08-31T17:55:23.911Z,102209.63
2022-08-31T17:58:27.023Z,102220.31
2022-08-31T18:01:31.456Z,102226.50
2022-08-31T18:04:38.971Z,102222.03
2022-08-31T18:07:42.080Z,102219.34
2022-08-31T18:10:52.184Z,102222.03
2022-08-31T18:13:55.591Z,102219.34
2022-08-31T18:17:01.035Z,102229.13
2022-08-31T18:20:06.888Z,102233.53
2022-08-31T18:23:10.355Z,102238.81
2022-08-31T18:26:16.061Z,102241.47
2022-08-31T18:29:24.338Z,102249.47
2022-08-31T18:32:28.767Z,102252.13
2022-08-31T18:35:33.160Z,102253.88
2022-08-31T18:38:36.772Z,102253.88
2022-08-31T18:41:57.128Z,102251.19
2022-08-31T18:45:19.846Z,102257.47
2022-08-31T18:48:26.261Z,102259.22
2022-08-31T18:51:30.999Z,102254.75
2022-08-31T18:54:34.454Z,102255.63
2022-08-31T18:57:48.481Z,102260.97
2022-08-31T19:00:57.308Z,102260.97
2022-08-31T19:04:02.753Z,102265.34
2022-08-31T19:07:07.752Z,102260.00
2022-08-31T19:10:13.240Z,102260.84
2022-08-31T19:13:16.395Z,102260.84
2022-08-31T19:16:21.995Z,102269.69
2022-08-31T19:19:25.591Z,102275.03
2022-08-31T19:22:30.102Z,102263.44
2022-08-31T19:25:33.056Z,102272.38
2022-08-31T19:28:36.158Z,102270.63
2022-08-31T19:31:41.062Z,102270.63
2022-08-31T19:34:46.530Z,102269.69
2022-08-31T19:37:51.855Z,102273.31
2022-08-31T19:40:55.332Z,102268.88
2022-08-31T19:44:08.442Z,102268.88
2022-08-31T19:47:24.500Z,102274.22
2022-08-31T19:50:27.806Z,102267.09
2022-08-31T19:53:32.246Z,102275.03
2022-08-31T19:56:38.980Z,102279.47
2022-08-31T19:59:42.161Z,102285.69
2022-08-31T20:02:45.612Z,102275.91
2022-08-31T20:05:48.829Z,102269.69
2022-08-31T20:08:54.578Z,102287.47
2022-08-31T20:11:59.952Z,102280.38
2022-08-31T20:15:03.485Z,102280.44
2022-08-31T20:18:07.585Z,102284.00
2022-08-31T20:21:15.306Z,102290.25
2022-08-31T20:24:21.350Z,102287.56
2022-08-31T20:27:24.262Z,102289.38
2022-08-31T20:30:28.552Z,102293.78
2022-08-31T20:33:31.638Z,102296.47
2022-08-31T20:36:38.052Z,102290.25
2022-08-31T20:39:43.264Z,102288.44
2022-08-31T20:42:46.252Z,102293.78
2022-08-31T20:45:49.654Z,102292.91
2022-08-31T20:49:09.915Z,102292.91
2022-08-31T20:52:15.390Z,102289.38
2022-08-31T20:55:19.974Z,102293.84
2022-08-31T20:58:22.911Z,102292.97
2022-08-31T21:01:26.192Z,102298.25
2022-08-31T21:04:30.646Z,102289.38
2022-08-31T21:07:36.172Z,102290.28
2022-08-31T21:10:41.170Z,102292.09
2022-08-31T21:13:45.562Z,102299.19
2022-08-31T21:16:50.041Z,102307.19
2022-08-31T21:19:53.927Z,102303.66
2022-08-31T21:22:56.952Z,102301.84
2022-08-31T21:26:01.375Z,102304.47
2022-08-31T21:29:04.900Z,102308.94
2022-08-31T21:32:10.716Z,102308.94
2022-08-31T21:35:15.153Z,102308.94
2022-08-31T21:38:18.236Z,102308.09
2022-08-31T21:41:24.706Z,102309.88
2022-08-31T21:44:27.994Z,102317.88
2022-08-31T21:47:31.151Z,102311.66
2022-08-31T21:50:34.654Z,102316.13
2022-08-31T21:53:38.389Z,102318.78
2022-08-31T21:56:45.307Z,102310.78
2022-08-31T21:59:50.203Z,102311.72
2022-08-31T22:02:54.722Z,102318.78
2022-08-31T22:05:57.806Z,102316.13
2022-08-31T22:09:09.331Z,102322.34
2022-08-31T22:12:14.966Z,102324.13
2022-08-31T22:15:23.834Z,102320.56
2022-08-31T22:18:59.650Z,102330.41
2022-08-31T22:21:52.986Z,102334.00
2022-08-31T22:24:56.247Z,102334.88
2022-08-31T22:28:01.454Z,102329.53
2022-08-31T22:31:07.283Z,102342.00
2022-08-31T22:34:11.954Z,102338.44
2022-08-31T22:37:15.065Z,102339.34
2022-08-31T22:40:21.717Z,102336.66
2022-08-31T22:43:26.160Z,102336.72
2022-08-31T22:46:29.453Z,102334.03
2022-08-31T22:49:32.690Z,102337.59
2022-08-31T22:52:35.735Z,102337.59
2022-08-31T22:55:41.208Z,102337.59
2022-08-31T22:58:47.061Z,102341.13
2022-08-31T23:01:55.055Z,102337.59
2022-08-31T23:05:01.586Z,102346.50
2022-08-31T23:08:04.682Z,102347.41
2022-08-31T23:11:08.838Z,102344.78
2022-08-31T23:14:13.264Z,102338.56
2022-08-31T23:17:17.227Z,102337.69
2022-08-31T23:20:24.336Z,102333.22
2022-08-31T23:23:28.791Z,102326.13
2022-08-31T23:26:32.184Z,102325.25
2022-08-31T23:29:41.059Z,102320.84
2022-08-31T23:32:44.937Z,102325.25
2022-08-31T23:35:49.827Z,102317.25
2022-08-31T23:38:55.072Z,102324.31
2022-08-31T23:41:58.435Z,102325.25
2022-08-31T23:45:03.775Z,102321.66
2022-08-31T23:48:08.408Z,102314.59
2022-08-31T23:51:13.310Z,102311.94
2022-08-31T23:54:17.889Z,102313.75
2022-08-31T23:57:33.276Z,102320.00
